sensor_id;sensor_type;location;lat;lon;timestamp;temperature;humidity
31597;DHT22;18201;50.978;7.034;2023-02-01T00:00:20;6.70;99.90
31597;DHT22;18201;50.978;7.034;2023-02-01T00:00:52;6.70;99.90
31597;DHT22;18201;50.978;7.034;2023-02-01T00:01:23;6.70;99.90
31597;DHT22;18201;50.978;7.034;2023-02-01T00:01:54;6.70;99.90
31597;DHT22;18201;50.978;7.034;2023-02-01T00:02:26;6.70;99.90
31597;DHT22;18201;50.978;7.034;2023-02-01T00:02:57;6.70;99.90
31597;DHT22;18201;50.978;7.034;2023-02-01T00:03:28;6.60;99.90
31597;DHT22;18201;50.978;7.034;2023-02-01T00:04:00;6.70;99.90
31597;DHT22;18201;50.978;7.034;2023-02-01T00:04:30;6.70;99.90
31597;DHT22;18201;50.978;7.034;2023-02-01T00:05:01;6.70;99.90
31597;DHT22;18201;50.978;7.034;2023-02-01T00:05:33;6.70;99.90
31597;DHT22;18201;50.978;7.034;2023-02-01T00:06:04;6.70;99.90
31597;DHT22;18201;50.978;7.034;2023-02-01T00:06:35;6.70;99.90
31597;DHT22;18201;50.978;7.034;2023-02-01T00:07:06;6.70;99.90
31597;DHT22;18201;50.978;7.034;2023-02-01T00:07:39;6.70;99.90
31597;DHT22;18201;50.978;7.034;2023-02-01T00:08:10;6.70;99.90
31597;DHT22;18201;50.978;7.034;2023-02-01T00:08:41;6.70;99.90
31597;DHT22;18201;50.978;7.034;2023-02-01T00:09:13;6.70;99.90
31597;DHT22;18201;50.978;7.034;2023-02-01T00:09:44;6.70;99.90
31597;DHT22;18201;50.978;7.034;2023-02-01T00:10:15;6.70;99.90
31597;DHT22;18201;50.978;7.034;2023-02-01T00:10:46;6.60;99.90
31597;DHT22;18201;50.978;7.034;2023-02-01T00:11:17;6.70;99.90
31597;DHT22;18201;50.978;7.034;2023-02-01T00:11:48;6.70;99.90
31597;DHT22;18201;50.978;7.034;2023-02-01T00:12:21;6.70;99.90
31597;DHT22;18201;50.978;7.034;2023-02-01T00:12:52;6.60;99.90
31597;DHT22;18201;50.978;7.034;2023-02-01T00:13:24;6.60;99.90
31597;DHT22;18201;50.978;7.034;2023-02-01T00:13:57;6.60;99.90
31597;DHT22;18201;50.978;7.034;2023-02-01T00:14:28;6.60;99.90
31597;DHT22;18201;50.978;7.034;2023-02-01T00:15:00;6.60;99.90
31597;DHT22;18201;50.978;7.034;2023-02-01T00:15:33;6.60;99.90
31597;DHT22;18201;50.978;7.034;2023-02-01T00:16:06;6.60;99.90
31597;DHT22;18201;50.978;7.034;2023-02-01T00:16:38;6.60;99.90
31597;DHT22;18201;50.978;7.034;2023-02-01T00:17:10;6.60;99.90
31597;DHT22;18201;50.978;7.034;2023-02-01T00:17:42;6.60;99.90
31597;DHT22;18201;50.978;7.034;2023-02-01T00:18:13;6.60;99.90
31597;DHT22;18201;50.978;7.034;2023-02-01T00:18:47;6.60;99.90
31597;DHT22;18201;50.978;7.034;2023-02-01T00:19:18;6.60;99.90
31597;DHT22;18201;50.978;7.034;2023-02-01T00:19:50;6.60;99.90
31597;DHT22;18201;50.978;7.034;2023-02-01T00:20:23;6.60;99.90
31597;DHT22;18201;50.978;7.034;2023-02-01T00:20:54;6.60;99.90
31597;DHT22;18201;50.978;7.034;2023-02-01T00:21:29;6.70;99.90
31597;DHT22;18201;50.978;7.034;2023-02-01T00:22:02;6.60;99.90
31597;DHT22;18201;50.978;7.034;2023-02-01T00:22:33;6.70;99.90
31597;DHT22;18201;50.978;7.034;2023-02-01T00:23:07;6.60;99.90
31597;DHT22;18201;50.978;7.034;2023-02-01T00:23:40;6.70;99.90
31597;DHT22;18201;50.978;7.034;2023-02-01T00:24:12;6.70;99.90
31597;DHT22;18201;50.978;7.034;2023-02-01T00:24:44;6.70;99.90
31597;DHT22;18201;50.978;7.034;2023-02-01T00:25:16;6.70;99.90
31597;DHT22;18201;50.978;7.034;2023-02-01T00:25:48;6.70;99.90
31597;DHT22;18201;50.978;7.034;2023-02-01T00:26:25;6.70;99.90
31597;DHT22;18201;50.978;7.034;2023-02-01T00:26:59;6.70;99.90
31597;DHT22;18201;50.978;7.034;2023-02-01T00:27:31;6.70;99.90
31597;DHT22;18201;50.978;7.034;2023-02-01T00:28:03;6.70;99.90
31597;DHT22;18201;50.978;7.034;2023-02-01T00:28:34;6.70;99.90
31597;DHT22;18201;50.978;7.034;2023-02-01T00:29:06;6.80;99.90
31597;DHT22;18201;50.978;7.034;2023-02-01T00:29:37;6.80;99.90
31597;DHT22;18201;50.978;7.034;2023-02-01T00:30:11;6.70;99.90
31597;DHT22;18201;50.978;7.034;2023-02-01T00:30:43;6.80;99.90
31597;DHT22;18201;50.978;7.034;2023-02-01T00:31:15;6.80;99.90
31597;DHT22;18201;50.978;7.034;2023-02-01T00:31:49;6.80;99.90
31597;DHT22;18201;50.978;7.034;2023-02-01T00:32:20;6.70;99.90
31597;DHT22;18201;50.978;7.034;2023-02-01T00:32:51;6.70;99.90
31597;DHT22;18201;50.978;7.034;2023-02-01T00:33:23;6.80;99.90
31597;DHT22;18201;50.978;7.034;2023-02-01T00:33:55;6.80;99.90
31597;DHT22;18201;50.978;7.034;2023-02-01T00:34:27;6.80;99.90
31597;DHT22;18201;50.978;7.034;2023-02-01T00:34:59;6.80;99.90
31597;DHT22;18201;50.978;7.034;2023-02-01T00:35:34;6.70;99.90
31597;DHT22;18201;50.978;7.034;2023-02-01T00:36:08;6.70;99.90
31597;DHT22;18201;50.978;7.034;2023-02-01T00:36:40;6.70;99.90
31597;DHT22;18201;50.978;7.034;2023-02-01T00:37:18;6.70;99.90
31597;DHT22;18201;50.978;7.034;2023-02-01T00:37:51;6.80;99.90
31597;DHT22;18201;50.978;7.034;2023-02-01T00:38:27;6.70;99.90
31597;DHT22;18201;50.978;7.034;2023-02-01T00:38:59;6.80;99.90
31597;DHT22;18201;50.978;7.034;2023-02-01T00:39:39;6.70;99.90
31597;DHT22;18201;50.978;7.034;2023-02-01T00:40:12;6.80;99.90
31597;DHT22;18201;50.978;7.034;2023-02-01T00:40:46;6.70;99.90
31597;DHT22;18201;50.978;7.034;2023-02-01T00:41:19;6.70;99.90
31597;DHT22;18201;50.978;7.034;2023-02-01T00:41:50;6.70;99.90
31597;DHT22;18201;50.978;7.034;2023-02-01T00:42:23;6.70;99.90
31597;DHT22;18201;50.978;7.034;2023-02-01T00:42:54;6.80;99.90
31597;DHT22;18201;50.978;7.034;2023-02-01T00:43:28;6.70;99.90
31597;DHT22;18201;50.978;7.034;2023-02-01T00:43:59;6.70;99.90
31597;DHT22;18201;50.978;7.034;2023-02-01T00:44:33;6.70;99.90
31597;DHT22;18201;50.978;7.034;2023-02-01T00:45:07;6.70;99.90
31597;DHT22;18201;50.978;7.034;2023-02-01T00:45:39;6.70;99.90
31597;DHT22;18201;50.978;7.034;2023-02-01T00:46:16;6.70;99.90
31597;DHT22;18201;50.978;7.034;2023-02-01T00:46:48;6.70;99.90
31597;DHT22;18201;50.978;7.034;2023-02-01T00:47:20;6.70;99.90
31597;DHT22;18201;50.978;7.034;2023-02-01T00:48:00;6.70;99.90
31597;DHT22;18201;50.978;7.034;2023-02-01T00:48:32;6.70;99.90
31597;DHT22;18201;50.978;7.034;2023-02-01T00:49:05;6.70;99.90
31597;DHT22;18201;50.978;7.034;2023-02-01T00:49:39;6.70;99.90
31597;DHT22;18201;50.978;7.034;2023-02-01T00:50:11;6.70;99.90
31597;DHT22;18201;50.978;7.034;2023-02-01T00:50:43;6.70;99.90
31597;DHT22;18201;50.978;7.034;2023-02-01T00:51:18;6.70;99.90
31597;DHT22;18201;50.978;7.034;2023-02-01T00:51:51;6.60;99.90
31597;DHT22;18201;50.978;7.034;2023-02-01T00:52:22;6.70;99.90
31597;DHT22;18201;50.978;7.034;2023-02-01T00:52:54;6.60;99.90
31597;DHT22;18201;50.978;7.034;2023-02-01T00:53:28;6.60;99.90
31597;DHT22;18201;50.978;7.034;2023-02-01T00:54:03;6.70;99.90
31597;DHT22;18201;50.978;7.034;2023-02-01T00:54:35;6.70;99.90
31597;DHT22;18201;50.978;7.034;2023-02-01T00:55:11;6.60;99.90
31597;DHT22;18201;50.978;7.034;2023-02-01T00:55:45;6.60;99.90
31597;DHT22;18201;50.978;7.034;2023-02-01T00:56:17;6.70;99.90
31597;DHT22;18201;50.978;7.034;2023-02-01T00:56:53;6.70;99.90
31597;DHT22;18201;50.978;7.034;2023-02-01T00:57:25;6.70;99.90
31597;DHT22;18201;50.978;7.034;2023-02-01T00:57:57;6.60;99.90
31597;DHT22;18201;50.978;7.034;2023-02-01T00:58:29;6.60;99.90
31597;DHT22;18201;50.978;7.034;2023-02-01T00:59:01;6.60;99.90
31597;DHT22;18201;50.978;7.034;2023-02-01T00:59:33;6.60;99.90
31597;DHT22;18201;50.978;7.034;2023-02-01T01:00:07;6.60;99.90
31597;DHT22;18201;50.978;7.034;2023-02-01T01:00:44;6.60;99.90
31597;DHT22;18201;50.978;7.034;2023-02-01T01:01:22;6.60;99.90
31597;DHT22;18201;50.978;7.034;2023-02-01T01:02:00;6.60;99.90
31597;DHT22;18201;50.978;7.034;2023-02-01T01:02:32;6.60;99.90
31597;DHT22;18201;50.978;7.034;2023-02-01T01:03:04;6.60;99.90
31597;DHT22;18201;50.978;7.034;2023-02-01T01:03:53;6.60;99.90
31597;DHT22;18201;50.978;7.034;2023-02-01T01:04:26;6.60;99.90
31597;DHT22;18201;50.978;7.034;2023-02-01T01:05:00;6.60;99.90
31597;DHT22;18201;50.978;7.034;2023-02-01T01:05:32;6.50;99.90
31597;DHT22;18201;50.978;7.034;2023-02-01T01:06:08;6.50;99.90
31597;DHT22;18201;50.978;7.034;2023-02-01T01:06:40;6.50;99.90
31597;DHT22;18201;50.978;7.034;2023-02-01T01:07:11;6.50;99.90
31597;DHT22;18201;50.978;7.034;2023-02-01T01:07:44;6.50;99.90
31597;DHT22;18201;50.978;7.034;2023-02-01T01:08:16;6.50;99.90
31597;DHT22;18201;50.978;7.034;2023-02-01T01:08:50;6.50;99.90
31597;DHT22;18201;50.978;7.034;2023-02-01T01:09:23;6.40;99.90
31597;DHT22;18201;50.978;7.034;2023-02-01T01:09:58;6.50;99.90
31597;DHT22;18201;50.978;7.034;2023-02-01T01:10:30;6.40;99.90
31597;DHT22;18201;50.978;7.034;2023-02-01T01:11:06;6.40;99.90
31597;DHT22;18201;50.978;7.034;2023-02-01T01:11:39;6.40;99.90
31597;DHT22;18201;50.978;7.034;2023-02-01T01:12:12;6.40;99.90
31597;DHT22;18201;50.978;7.034;2023-02-01T01:12:43;6.40;99.90
31597;DHT22;18201;50.978;7.034;2023-02-01T01:13:18;6.40;99.90
31597;DHT22;18201;50.978;7.034;2023-02-01T01:13:52;6.40;99.90
31597;DHT22;18201;50.978;7.034;2023-02-01T01:14:25;6.40;99.90
31597;DHT22;18201;50.978;7.034;2023-02-01T01:14:57;6.50;99.90
31597;DHT22;18201;50.978;7.034;2023-02-01T01:15:28;6.50;99.90
31597;DHT22;18201;50.978;7.034;2023-02-01T01:16:01;6.50;99.90
31597;DHT22;18201;50.978;7.034;2023-02-01T01:16:34;6.50;99.90
31597;DHT22;18201;50.978;7.034;2023-02-01T01:17:06;6.40;99.90
31597;DHT22;18201;50.978;7.034;2023-02-01T01:17:38;6.40;99.90
31597;DHT22;18201;50.978;7.034;2023-02-01T01:18:10;6.40;99.90
31597;DHT22;18201;50.978;7.034;2023-02-01T01:18:42;6.40;99.90
31597;DHT22;18201;50.978;7.034;2023-02-01T01:19:14;6.40;99.90
31597;DHT22;18201;50.978;7.034;2023-02-01T01:19:47;6.50;99.90
31597;DHT22;18201;50.978;7.034;2023-02-01T01:20:18;6.50;99.90
31597;DHT22;18201;50.978;7.034;2023-02-01T01:20:52;6.50;99.90
31597;DHT22;18201;50.978;7.034;2023-02-01T01:21:24;6.50;99.90
31597;DHT22;18201;50.978;7.034;2023-02-01T01:21:57;6.50;99.90
31597;DHT22;18201;50.978;7.034;2023-02-01T01:22:28;6.50;99.90
31597;DHT22;18201;50.978;7.034;2023-02-01T01:22:59;6.40;99.90
31597;DHT22;18201;50.978;7.034;2023-02-01T01:23:30;6.40;99.90
31597;DHT22;18201;50.978;7.034;2023-02-01T01:24:03;6.40;99.90
31597;DHT22;18201;50.978;7.034;2023-02-01T01:24:34;6.40;99.90
31597;DHT22;18201;50.978;7.034;2023-02-01T01:25:06;6.40;99.90
31597;DHT22;18201;50.978;7.034;2023-02-01T01:25:38;6.40;99.90
31597;DHT22;18201;50.978;7.034;2023-02-01T01:26:12;6.40;99.90
31597;DHT22;18201;50.978;7.034;2023-02-01T01:26:44;6.40;99.90
31597;DHT22;18201;50.978;7.034;2023-02-01T01:27:15;6.40;99.90
31597;DHT22;18201;50.978;7.034;2023-02-01T01:27:53;6.40;99.90
31597;DHT22;18201;50.978;7.034;2023-02-01T01:28:24;6.40;99.90
31597;DHT22;18201;50.978;7.034;2023-02-01T01:28:55;6.40;99.90
31597;DHT22;18201;50.978;7.034;2023-02-01T01:29:27;6.30;99.90
31597;DHT22;18201;50.978;7.034;2023-02-01T01:29:58;6.40;99.90
31597;DHT22;18201;50.978;7.034;2023-02-01T01:30:29;6.40;99.90
31597;DHT22;18201;50.978;7.034;2023-02-01T01:31:00;6.40;99.90
31597;DHT22;18201;50.978;7.034;2023-02-01T01:31:32;6.40;99.90
31597;DHT22;18201;50.978;7.034;2023-02-01T01:32:03;6.40;99.90
31597;DHT22;18201;50.978;7.034;2023-02-01T01:32:34;6.40;99.90
31597;DHT22;18201;50.978;7.034;2023-02-01T01:33:05;6.30;99.90
31597;DHT22;18201;50.978;7.034;2023-02-01T01:33:37;6.40;99.90
31597;DHT22;18201;50.978;7.034;2023-02-01T01:34:08;6.40;99.90
31597;DHT22;18201;50.978;7.034;2023-02-01T01:34:40;6.40;99.90
31597;DHT22;18201;50.978;7.034;2023-02-01T01:35:11;6.40;99.90
31597;DHT22;18201;50.978;7.034;2023-02-01T01:35:42;6.40;99.90
31597;DHT22;18201;50.978;7.034;2023-02-01T01:36:12;6.40;99.90
31597;DHT22;18201;50.978;7.034;2023-02-01T01:36:44;6.40;99.90
31597;DHT22;18201;50.978;7.034;2023-02-01T01:37:15;6.40;99.90
31597;DHT22;18201;50.978;7.034;2023-02-01T01:37:47;6.40;99.90
31597;DHT22;18201;50.978;7.034;2023-02-01T01:38:18;6.40;99.90
31597;DHT22;18201;50.978;7.034;2023-02-01T01:38:49;6.40;99.90
31597;DHT22;18201;50.978;7.034;2023-02-01T01:39:22;6.40;99.90
31597;DHT22;18201;50.978;7.034;2023-02-01T01:39:53;6.40;99.90
31597;DHT22;18201;50.978;7.034;2023-02-01T01:40:26;6.40;99.90
31597;DHT22;18201;50.978;7.034;2023-02-01T01:40:57;6.40;99.90
31597;DHT22;18201;50.978;7.034;2023-02-01T01:41:30;6.40;99.90
31597;DHT22;18201;50.978;7.034;2023-02-01T01:42:01;6.40;99.90
31597;DHT22;18201;50.978;7.034;2023-02-01T01:42:36;6.40;99.90
31597;DHT22;18201;50.978;7.034;2023-02-01T01:43:13;6.40;99.90
31597;DHT22;18201;50.978;7.034;2023-02-01T01:43:48;6.40;99.90
31597;DHT22;18201;50.978;7.034;2023-02-01T01:44:57;6.40;99.90
31597;DHT22;18201;50.978;7.034;2023-02-01T01:45:29;6.40;99.90
31597;DHT22;18201;50.978;7.034;2023-02-01T01:46:01;6.40;99.90
31597;DHT22;18201;50.978;7.034;2023-02-01T01:46:33;6.40;99.90
31597;DHT22;18201;50.978;7.034;2023-02-01T01:47:06;6.30;99.90
31597;DHT22;18201;50.978;7.034;2023-02-01T01:47:39;6.30;99.90
31597;DHT22;18201;50.978;7.034;2023-02-01T01:48:16;6.30;99.90
31597;DHT22;18201;50.978;7.034;2023-02-01T01:48:53;6.30;99.90
31597;DHT22;18201;50.978;7.034;2023-02-01T01:49:25;6.30;99.90
31597;DHT22;18201;50.978;7.034;2023-02-01T01:49:56;6.30;99.90
31597;DHT22;18201;50.978;7.034;2023-02-01T01:50:31;6.30;99.90
31597;DHT22;18201;50.978;7.034;2023-02-01T01:51:07;6.30;99.90
31597;DHT22;18201;50.978;7.034;2023-02-01T01:51:46;6.30;99.90
31597;DHT22;18201;50.978;7.034;2023-02-01T01:52:19;6.30;99.90
31597;DHT22;18201;50.978;7.034;2023-02-01T01:52:52;6.30;99.90
31597;DHT22;18201;50.978;7.034;2023-02-01T01:53:28;6.30;99.90
31597;DHT22;18201;50.978;7.034;2023-02-01T01:54:05;6.30;99.90
31597;DHT22;18201;50.978;7.034;2023-02-01T01:54:42;6.30;99.90
31597;DHT22;18201;50.978;7.034;2023-02-01T01:55:13;6.30;99.90
31597;DHT22;18201;50.978;7.034;2023-02-01T01:55:47;6.30;99.90
31597;DHT22;18201;50.978;7.034;2023-02-01T01:56:18;6.30;99.90
31597;DHT22;18201;50.978;7.034;2023-02-01T01:56:52;6.30;99.90
31597;DHT22;18201;50.978;7.034;2023-02-01T01:57:31;6.20;99.90
31597;DHT22;18201;50.978;7.034;2023-02-01T01:58:05;6.20;99.90
31597;DHT22;18201;50.978;7.034;2023-02-01T01:58:37;6.20;99.90
31597;DHT22;18201;50.978;7.034;2023-02-01T01:59:09;6.20;99.90
31597;DHT22;18201;50.978;7.034;2023-02-01T01:59:41;6.20;99.90
31597;DHT22;18201;50.978;7.034;2023-02-01T02:00:16;6.20;99.90
31597;DHT22;18201;50.978;7.034;2023-02-01T02:00:48;6.20;99.90
31597;DHT22;18201;50.978;7.034;2023-02-01T02:01:20;6.20;99.90
31597;DHT22;18201;50.978;7.034;2023-02-01T02:01:51;6.20;99.90
31597;DHT22;18201;50.978;7.034;2023-02-01T02:02:22;6.20;99.90
31597;DHT22;18201;50.978;7.034;2023-02-01T02:02:58;6.20;99.90
31597;DHT22;18201;50.978;7.034;2023-02-01T02:03:33;6.20;99.90
31597;DHT22;18201;50.978;7.034;2023-02-01T02:04:05;6.20;99.90
31597;DHT22;18201;50.978;7.034;2023-02-01T02:04:37;6.20;99.90
31597;DHT22;18201;50.978;7.034;2023-02-01T02:05:09;6.20;99.90
31597;DHT22;18201;50.978;7.034;2023-02-01T02:05:40;6.20;99.90
31597;DHT22;18201;50.978;7.034;2023-02-01T02:06:17;6.20;99.90
31597;DHT22;18201;50.978;7.034;2023-02-01T02:06:56;6.20;99.90
31597;DHT22;18201;50.978;7.034;2023-02-01T02:07:30;6.20;99.90
31597;DHT22;18201;50.978;7.034;2023-02-01T02:08:02;6.20;99.90
31597;DHT22;18201;50.978;7.034;2023-02-01T02:08:34;6.10;99.90
31597;DHT22;18201;50.978;7.034;2023-02-01T02:09:05;6.10;99.90
31597;DHT22;18201;50.978;7.034;2023-02-01T02:09:38;6.10;99.90
31597;DHT22;18201;50.978;7.034;2023-02-01T02:10:12;6.10;99.90
31597;DHT22;18201;50.978;7.034;2023-02-01T02:10:44;6.10;99.90
31597;DHT22;18201;50.978;7.034;2023-02-01T02:11:30;6.10;99.90
31597;DHT22;18201;50.978;7.034;2023-02-01T02:12:02;6.10;99.90
31597;DHT22;18201;50.978;7.034;2023-02-01T02:12:33;6.10;99.90
31597;DHT22;18201;50.978;7.034;2023-02-01T02:13:04;6.10;99.90
31597;DHT22;18201;50.978;7.034;2023-02-01T02:13:37;6.10;99.90
31597;DHT22;18201;50.978;7.034;2023-02-01T02:14:11;6.20;99.90
31597;DHT22;18201;50.978;7.034;2023-02-01T02:14:44;6.20;99.90
31597;DHT22;18201;50.978;7.034;2023-02-01T02:15:16;6.10;99.90
31597;DHT22;18201;50.978;7.034;2023-02-01T02:15:58;6.20;99.90
31597;DHT22;18201;50.978;7.034;2023-02-01T02:16:40;6.20;99.90
31597;DHT22;18201;50.978;7.034;2023-02-01T02:17:31;6.20;99.90
31597;DHT22;18201;50.978;7.034;2023-02-01T02:18:15;6.20;99.90
31597;DHT22;18201;50.978;7.034;2023-02-01T02:18:59;6.20;99.90
31597;DHT22;18201;50.978;7.034;2023-02-01T02:20:54;6.20;99.90
31597;DHT22;18201;50.978;7.034;2023-02-01T02:21:45;6.20;99.90
31597;DHT22;18201;50.978;7.034;2023-02-01T02:23:46;6.20;99.90
31597;DHT22;18201;50.978;7.034;2023-02-01T02:24:40;6.20;99.90
31597;DHT22;18201;50.978;7.034;2023-02-01T02:25:54;6.20;99.90
31597;DHT22;18201;50.978;7.034;2023-02-01T02:26:39;6.20;99.90
31597;DHT22;18201;50.978;7.034;2023-02-01T02:27:19;6.20;99.90
31597;DHT22;18201;50.978;7.034;2023-02-01T02:27:57;6.20;99.90
31597;DHT22;18201;50.978;7.034;2023-02-01T02:28:47;6.10;99.90
31597;DHT22;18201;50.978;7.034;2023-02-01T02:29:37;6.20;99.90
31597;DHT22;18201;50.978;7.034;2023-02-01T02:30:41;6.20;99.90
31597;DHT22;18201;50.978;7.034;2023-02-01T02:31:46;6.20;99.90
31597;DHT22;18201;50.978;7.034;2023-02-01T02:33:54;6.20;99.90
31597;DHT22;18201;50.978;7.034;2023-02-01T02:34:32;6.30;99.90
31597;DHT22;18201;50.978;7.034;2023-02-01T02:35:13;6.30;99.90
31597;DHT22;18201;50.978;7.034;2023-02-01T02:35:51;6.20;99.90
31597;DHT22;18201;50.978;7.034;2023-02-01T02:36:30;6.30;99.90
31597;DHT22;18201;50.978;7.034;2023-02-01T02:37:09;6.30;99.90
31597;DHT22;18201;50.978;7.034;2023-02-01T02:37:50;6.30;99.90
31597;DHT22;18201;50.978;7.034;2023-02-01T02:38:30;6.30;99.90
31597;DHT22;18201;50.978;7.034;2023-02-01T02:39:07;6.30;99.90
31597;DHT22;18201;50.978;7.034;2023-02-01T02:39:46;6.30;99.90
31597;DHT22;18201;50.978;7.034;2023-02-01T02:40:25;6.30;99.90
31597;DHT22;18201;50.978;7.034;2023-02-01T02:41:05;6.30;99.90
31597;DHT22;18201;50.978;7.034;2023-02-01T02:41:47;6.30;99.90
31597;DHT22;18201;50.978;7.034;2023-02-01T02:42:42;6.30;99.90
31597;DHT22;18201;50.978;7.034;2023-02-01T02:43:37;6.30;99.90
31597;DHT22;18201;50.978;7.034;2023-02-01T02:44:34;6.30;99.90
31597;DHT22;18201;50.978;7.034;2023-02-01T02:45:28;6.30;99.90
31597;DHT22;18201;50.978;7.034;2023-02-01T02:46:33;6.30;99.90
31597;DHT22;18201;50.978;7.034;2023-02-01T02:47:33;6.30;99.90
31597;DHT22;18201;50.978;7.034;2023-02-01T02:48:11;6.30;99.90
31597;DHT22;18201;50.978;7.034;2023-02-01T02:48:47;6.30;99.90
31597;DHT22;18201;50.978;7.034;2023-02-01T02:49:22;6.30;99.90
31597;DHT22;18201;50.978;7.034;2023-02-01T02:50:02;6.30;99.90
31597;DHT22;18201;50.978;7.034;2023-02-01T02:50:56;6.30;99.90
31597;DHT22;18201;50.978;7.034;2023-02-01T02:51:50;6.30;99.90
31597;DHT22;18201;50.978;7.034;2023-02-01T02:52:44;6.30;99.90
31597;DHT22;18201;50.978;7.034;2023-02-01T02:53:38;6.30;99.90
31597;DHT22;18201;50.978;7.034;2023-02-01T02:54:31;6.30;99.90
31597;DHT22;18201;50.978;7.034;2023-02-01T02:55:23;6.30;99.90
31597;DHT22;18201;50.978;7.034;2023-02-01T02:55:56;6.30;99.90
31597;DHT22;18201;50.978;7.034;2023-02-01T02:56:47;6.30;99.90
31597;DHT22;18201;50.978;7.034;2023-02-01T02:57:39;6.30;99.90
31597;DHT22;18201;50.978;7.034;2023-02-01T02:59:58;6.30;99.90
31597;DHT22;18201;50.978;7.034;2023-02-01T03:00:50;6.40;99.90
31597;DHT22;18201;50.978;7.034;2023-02-01T03:01:40;6.30;99.90
31597;DHT22;18201;50.978;7.034;2023-02-01T03:02:30;6.30;99.90
31597;DHT22;18201;50.978;7.034;2023-02-01T03:03:19;6.30;99.90
31597;DHT22;18201;50.978;7.034;2023-02-01T03:04:09;6.30;99.90
31597;DHT22;18201;50.978;7.034;2023-02-01T03:04:53;6.30;99.90
31597;DHT22;18201;50.978;7.034;2023-02-01T03:05:32;6.30;99.90
31597;DHT22;18201;50.978;7.034;2023-02-01T03:06:03;6.30;99.90
31597;DHT22;18201;50.978;7.034;2023-02-01T03:06:37;6.30;99.90
31597;DHT22;18201;50.978;7.034;2023-02-01T03:07:13;6.30;99.90
31597;DHT22;18201;50.978;7.034;2023-02-01T03:08:02;6.30;99.90
31597;DHT22;18201;50.978;7.034;2023-02-01T03:08:34;6.30;99.90
31597;DHT22;18201;50.978;7.034;2023-02-01T03:09:10;6.30;99.90
31597;DHT22;18201;50.978;7.034;2023-02-01T03:09:44;6.30;99.90
31597;DHT22;18201;50.978;7.034;2023-02-01T03:10:24;6.20;99.90
31597;DHT22;18201;50.978;7.034;2023-02-01T03:10:59;6.20;99.90
31597;DHT22;18201;50.978;7.034;2023-02-01T03:11:32;6.30;99.90
31597;DHT22;18201;50.978;7.034;2023-02-01T03:12:18;6.30;99.90
31597;DHT22;18201;50.978;7.034;2023-02-01T03:13:13;6.30;99.90
31597;DHT22;18201;50.978;7.034;2023-02-01T03:13:50;6.40;99.90
31597;DHT22;18201;50.978;7.034;2023-02-01T03:14:22;6.40;99.90
31597;DHT22;18201;50.978;7.034;2023-02-01T03:14:59;6.40;99.90
31597;DHT22;18201;50.978;7.034;2023-02-01T03:15:36;6.40;99.90
31597;DHT22;18201;50.978;7.034;2023-02-01T03:16:13;6.40;99.90
31597;DHT22;18201;50.978;7.034;2023-02-01T03:16:49;6.40;99.90
31597;DHT22;18201;50.978;7.034;2023-02-01T03:17:26;6.40;99.90
31597;DHT22;18201;50.978;7.034;2023-02-01T03:18:03;6.40;99.90
31597;DHT22;18201;50.978;7.034;2023-02-01T03:18:41;6.40;99.90
31597;DHT22;18201;50.978;7.034;2023-02-01T03:19:18;6.40;99.90
31597;DHT22;18201;50.978;7.034;2023-02-01T03:19:52;6.40;99.90
31597;DHT22;18201;50.978;7.034;2023-02-01T03:20:24;6.40;99.90
31597;DHT22;18201;50.978;7.034;2023-02-01T03:21:00;6.40;99.90
31597;DHT22;18201;50.978;7.034;2023-02-01T03:21:37;6.40;99.90
31597;DHT22;18201;50.978;7.034;2023-02-01T03:22:12;6.40;99.90
31597;DHT22;18201;50.978;7.034;2023-02-01T03:22:45;6.40;99.90
31597;DHT22;18201;50.978;7.034;2023-02-01T03:23:18;6.40;99.90
31597;DHT22;18201;50.978;7.034;2023-02-01T03:23:53;6.30;99.90
31597;DHT22;18201;50.978;7.034;2023-02-01T03:24:28;6.40;99.90
31597;DHT22;18201;50.978;7.034;2023-02-01T03:25:09;6.40;99.90
31597;DHT22;18201;50.978;7.034;2023-02-01T03:25:41;6.40;99.90
31597;DHT22;18201;50.978;7.034;2023-02-01T03:26:15;6.30;99.90
31597;DHT22;18201;50.978;7.034;2023-02-01T03:26:51;6.40;99.90
31597;DHT22;18201;50.978;7.034;2023-02-01T03:27:27;6.40;99.90
31597;DHT22;18201;50.978;7.034;2023-02-01T03:28:02;6.40;99.90
31597;DHT22;18201;50.978;7.034;2023-02-01T03:28:36;6.40;99.90
31597;DHT22;18201;50.978;7.034;2023-02-01T03:29:13;6.40;99.90
31597;DHT22;18201;50.978;7.034;2023-02-01T03:29:51;6.40;99.90
31597;DHT22;18201;50.978;7.034;2023-02-01T03:30:28;6.40;99.90
31597;DHT22;18201;50.978;7.034;2023-02-01T03:31:00;6.40;99.90
31597;DHT22;18201;50.978;7.034;2023-02-01T03:31:32;6.40;99.90
31597;DHT22;18201;50.978;7.034;2023-02-01T03:32:04;6.40;99.90
31597;DHT22;18201;50.978;7.034;2023-02-01T03:32:38;6.50;99.90
31597;DHT22;18201;50.978;7.034;2023-02-01T03:33:26;6.50;99.90
31597;DHT22;18201;50.978;7.034;2023-02-01T03:34:00;6.40;99.90
31597;DHT22;18201;50.978;7.034;2023-02-01T03:34:31;6.50;99.90
31597;DHT22;18201;50.978;7.034;2023-02-01T03:35:05;6.50;99.90
31597;DHT22;18201;50.978;7.034;2023-02-01T03:35:40;6.50;99.90
31597;DHT22;18201;50.978;7.034;2023-02-01T03:36:23;6.50;99.90
31597;DHT22;18201;50.978;7.034;2023-02-01T03:36:59;6.60;99.90
31597;DHT22;18201;50.978;7.034;2023-02-01T03:37:31;6.50;99.90
31597;DHT22;18201;50.978;7.034;2023-02-01T03:38:08;6.50;99.90
31597;DHT22;18201;50.978;7.034;2023-02-01T03:38:44;6.60;99.90
31597;DHT22;18201;50.978;7.034;2023-02-01T03:39:22;6.60;99.90
31597;DHT22;18201;50.978;7.034;2023-02-01T03:39:59;6.60;99.90
31597;DHT22;18201;50.978;7.034;2023-02-01T03:40:36;6.60;99.90
31597;DHT22;18201;50.978;7.034;2023-02-01T03:41:11;6.60;99.90
31597;DHT22;18201;50.978;7.034;2023-02-01T03:41:49;6.50;99.90
31597;DHT22;18201;50.978;7.034;2023-02-01T03:42:26;6.50;99.90
31597;DHT22;18201;50.978;7.034;2023-02-01T03:42:59;6.50;99.90
31597;DHT22;18201;50.978;7.034;2023-02-01T03:43:37;6.50;99.90
31597;DHT22;18201;50.978;7.034;2023-02-01T03:44:16;6.50;99.90
31597;DHT22;18201;50.978;7.034;2023-02-01T03:44:54;6.50;99.90
31597;DHT22;18201;50.978;7.034;2023-02-01T03:45:34;6.50;99.90
31597;DHT22;18201;50.978;7.034;2023-02-01T03:46:11;6.50;99.90
31597;DHT22;18201;50.978;7.034;2023-02-01T03:46:47;6.50;99.90
31597;DHT22;18201;50.978;7.034;2023-02-01T03:47:22;6.50;99.90
31597;DHT22;18201;50.978;7.034;2023-02-01T03:47:56;6.50;99.90
31597;DHT22;18201;50.978;7.034;2023-02-01T03:48:30;6.50;99.90
31597;DHT22;18201;50.978;7.034;2023-02-01T03:49:03;6.50;99.90
31597;DHT22;18201;50.978;7.034;2023-02-01T03:49:40;6.50;99.90
31597;DHT22;18201;50.978;7.034;2023-02-01T03:50:16;6.50;99.90
31597;DHT22;18201;50.978;7.034;2023-02-01T03:50:50;6.50;99.90
31597;DHT22;18201;50.978;7.034;2023-02-01T03:51:23;6.50;99.90
31597;DHT22;18201;50.978;7.034;2023-02-01T03:51:58;6.50;99.90
31597;DHT22;18201;50.978;7.034;2023-02-01T03:52:32;6.50;99.90
31597;DHT22;18201;50.978;7.034;2023-02-01T03:53:08;6.50;99.90
31597;DHT22;18201;50.978;7.034;2023-02-01T03:53:43;6.50;99.90
31597;DHT22;18201;50.978;7.034;2023-02-01T03:54:18;6.50;99.90
31597;DHT22;18201;50.978;7.034;2023-02-01T03:54:50;6.50;99.90